sensor_id;sensor_type;location;lat;lon;timestamp;pressure;altitude;pressure_sealevel;temperature;humidity
30730;BME280;17476;48.458;7.928;2022-12-29T00:00:10;99547.53;;;12.60;66.07
30730;BME280;17476;48.458;7.928;2022-12-29T00:02:36;99540.22;;;12.55;66.32
30730;BME280;17476;48.458;7.928;2022-12-29T00:05:02;99541.97;;;12.70;65.59
30730;BME280;17476;48.458;7.928;2022-12-29T00:07:28;99544.19;;;12.73;65.66
30730;BME280;17476;48.458;7.928;2022-12-29T00:09:54;99552.00;;;12.66;65.73
30730;BME280;17476;48.458;7.928;2022-12-29T00:12:19;99550.69;;;12.55;66.64
30730;BME280;17476;48.458;7.928;2022-12-29T00:14:45;99546.47;;;12.54;66.45
30730;BME280;17476;48.458;7.928;2022-12-29T00:17:30;99549.38;;;12.45;67.21
30730;BME280;17476;48.458;7.928;2022-12-29T00:19:56;99550.91;;;12.54;66.40
30730;BME280;17476;48.458;7.928;2022-12-29T00:22:40;99549.09;;;12.54;66.75
30730;BME280;17476;48.458;7.928;2022-12-29T00:25:24;99543.31;;;12.44;67.79
30730;BME280;17476;48.458;7.928;2022-12-29T00:28:09;99552.09;;;12.37;68.17
30730;BME280;17476;48.458;7.928;2022-12-29T00:30:53;99548.84;;;12.35;67.92
30730;BME280;17476;48.458;7.928;2022-12-29T00:33:42;99545.03;;;12.37;68.09
30730;BME280;17476;48.458;7.928;2022-12-29T00:36:34;99538.91;;;12.30;69.14
30730;BME280;17476;48.458;7.928;2022-12-29T00:39:14;99538.38;;;12.35;68.35
30730;BME280;17476;48.458;7.928;2022-12-29T00:42:08;99548.41;;;12.31;67.72
30730;BME280;17476;48.458;7.928;2022-12-29T00:45:03;99543.97;;;12.32;68.18
30730;BME280;17476;48.458;7.928;2022-12-29T00:47:29;99540.34;;;12.33;68.12
30730;BME280;17476;48.458;7.928;2022-12-29T00:49:54;99540.22;;;12.19;69.71
30730;BME280;17476;48.458;7.928;2022-12-29T00:52:20;99537.03;;;12.24;68.31
30730;BME280;17476;48.458;7.928;2022-12-29T00:54:46;99531.91;;;12.16;69.89
30730;BME280;17476;48.458;7.928;2022-12-29T00:57:12;99538.94;;;12.15;69.41
30730;BME280;17476;48.458;7.928;2022-12-29T00:59:40;99544.63;;;12.19;69.89
30730;BME280;17476;48.458;7.928;2022-12-29T01:02:06;99548.00;;;12.13;69.47
30730;BME280;17476;48.458;7.928;2022-12-29T01:04:33;99545.38;;;12.13;69.51
30730;BME280;17476;48.458;7.928;2022-12-29T01:06:59;99551.25;;;12.15;69.42
30730;BME280;17476;48.458;7.928;2022-12-29T01:09:25;99553.31;;;12.19;68.50
30730;BME280;17476;48.458;7.928;2022-12-29T01:12:10;99549.13;;;12.25;67.91
30730;BME280;17476;48.458;7.928;2022-12-29T01:14:36;99559.19;;;12.21;68.91
30730;BME280;17476;48.458;7.928;2022-12-29T01:17:03;99553.38;;;12.26;67.66
30730;BME280;17476;48.458;7.928;2022-12-29T01:19:29;99555.91;;;12.34;67.69
30730;BME280;17476;48.458;7.928;2022-12-29T01:21:55;99554.28;;;12.33;67.40
30730;BME280;17476;48.458;7.928;2022-12-29T01:24:21;99557.41;;;12.43;66.29
30730;BME280;17476;48.458;7.928;2022-12-29T01:26:48;99550.63;;;12.49;66.90
30730;BME280;17476;48.458;7.928;2022-12-29T01:29:14;99553.78;;;12.44;66.61
30730;BME280;17476;48.458;7.928;2022-12-29T01:31:40;99555.25;;;12.47;66.64
30730;BME280;17476;48.458;7.928;2022-12-29T01:34:06;99555.06;;;12.48;66.76
30730;BME280;17476;48.458;7.928;2022-12-29T01:36:32;99562.03;;;12.41;66.73
30730;BME280;17476;48.458;7.928;2022-12-29T01:38:58;99563.88;;;12.26;68.04
30730;BME280;17476;48.458;7.928;2022-12-29T01:41:24;99565.84;;;12.39;66.54
30730;BME280;17476;48.458;7.928;2022-12-29T01:43:57;99569.84;;;12.35;67.23
30730;BME280;17476;48.458;7.928;2022-12-29T01:46:38;99577.03;;;12.47;66.04
30730;BME280;17476;48.458;7.928;2022-12-29T01:51:43;99575.88;;;12.35;66.83
30730;BME280;17476;48.458;7.928;2022-12-29T01:54:17;99577.13;;;12.39;66.59
30730;BME280;17476;48.458;7.928;2022-12-29T01:56:44;99579.44;;;12.27;67.31
30730;BME280;17476;48.458;7.928;2022-12-29T01:59:15;99578.94;;;12.39;66.16
30730;BME280;17476;48.458;7.928;2022-12-29T02:01:44;99576.91;;;12.34;66.17
30730;BME280;17476;48.458;7.928;2022-12-29T02:04:11;99580.06;;;12.29;67.28
30730;BME280;17476;48.458;7.928;2022-12-29T02:07:02;99576.72;;;12.21;68.25
30730;BME280;17476;48.458;7.928;2022-12-29T02:09:30;99571.91;;;12.24;67.45
30730;BME280;17476;48.458;7.928;2022-12-29T02:11:57;99574.09;;;12.21;67.41
30730;BME280;17476;48.458;7.928;2022-12-29T02:14:24;99571.38;;;12.29;66.75
30730;BME280;17476;48.458;7.928;2022-12-29T02:19:48;99569.25;;;12.39;66.19
30730;BME280;17476;48.458;7.928;2022-12-29T02:22:50;99584.91;;;12.33;66.60
30730;BME280;17476;48.458;7.928;2022-12-29T02:42:41;99568.50;;;12.24;67.03
30730;BME280;17476;48.458;7.928;2022-12-29T02:45:20;99559.28;;;12.28;66.20
30730;BME280;17476;48.458;7.928;2022-12-29T02:48:15;99556.28;;;12.16;66.82
30730;BME280;17476;48.458;7.928;2022-12-29T02:51:09;99548.09;;;12.19;67.24
30730;BME280;17476;48.458;7.928;2022-12-29T02:53:38;99545.09;;;12.22;67.24
30730;BME280;17476;48.458;7.928;2022-12-29T02:56:23;99553.69;;;12.16;67.69
30730;BME280;17476;48.458;7.928;2022-12-29T02:58:49;99541.84;;;12.06;68.10
30730;BME280;17476;48.458;7.928;2022-12-29T03:01:37;99540.69;;;11.93;68.58
30730;BME280;17476;48.458;7.928;2022-12-29T03:08:19;99546.06;;;11.77;69.43
30730;BME280;17476;48.458;7.928;2022-12-29T03:13:47;99529.72;;;12.05;68.51
30730;BME280;17476;48.458;7.928;2022-12-29T03:16:47;99523.69;;;12.04;69.02
30730;BME280;17476;48.458;7.928;2022-12-29T03:19:36;99519.63;;;12.01;68.75
30730;BME280;17476;48.458;7.928;2022-12-29T03:22:13;99524.97;;;11.93;70.00
30730;BME280;17476;48.458;7.928;2022-12-29T03:25:19;99528.22;;;11.95;69.88
30730;BME280;17476;48.458;7.928;2022-12-29T03:28:02;99528.25;;;11.81;70.56
30730;BME280;17476;48.458;7.928;2022-12-29T03:30:29;99538.16;;;11.85;70.59
30730;BME280;17476;48.458;7.928;2022-12-29T03:33:01;99524.97;;;11.79;70.69
30730;BME280;17476;48.458;7.928;2022-12-29T03:35:33;99534.59;;;11.78;70.78
30730;BME280;17476;48.458;7.928;2022-12-29T03:40:52;99527.66;;;11.85;71.12
30730;BME280;17476;48.458;7.928;2022-12-29T03:43:20;99539.13;;;11.69;71.89
30730;BME280;17476;48.458;7.928;2022-12-29T03:45:46;99544.91;;;11.65;72.52
30730;BME280;17476;48.458;7.928;2022-12-29T03:48:12;99549.41;;;11.71;71.92
30730;BME280;17476;48.458;7.928;2022-12-29T03:50:38;99555.56;;;11.63;73.10
30730;BME280;17476;48.458;7.928;2022-12-29T03:53:03;99546.72;;;11.79;71.97
30730;BME280;17476;48.458;7.928;2022-12-29T03:55:29;99542.66;;;11.91;71.62
30730;BME280;17476;48.458;7.928;2022-12-29T03:57:55;99526.88;;;11.99;71.46
30730;BME280;17476;48.458;7.928;2022-12-29T04:00:21;99524.78;;;11.95;72.21
30730;BME280;17476;48.458;7.928;2022-12-29T04:02:47;99519.16;;;11.98;72.04
30730;BME280;17476;48.458;7.928;2022-12-29T04:05:12;99525.88;;;12.00;72.33
30730;BME280;17476;48.458;7.928;2022-12-29T04:07:38;99524.16;;;11.93;72.58
30730;BME280;17476;48.458;7.928;2022-12-29T04:10:04;99512.28;;;12.12;71.45
30730;BME280;17476;48.458;7.928;2022-12-29T04:12:30;99506.41;;;12.10;71.97
30730;BME280;17476;48.458;7.928;2022-12-29T04:14:56;99492.97;;;12.13;71.83
30730;BME280;17476;48.458;7.928;2022-12-29T04:17:22;99498.69;;;11.87;73.79
30730;BME280;17476;48.458;7.928;2022-12-29T04:19:47;99497.41;;;11.97;72.89
30730;BME280;17476;48.458;7.928;2022-12-29T04:22:13;99490.63;;;12.03;72.77
30730;BME280;17476;48.458;7.928;2022-12-29T04:24:39;99505.63;;;11.94;73.23
30730;BME280;17476;48.458;7.928;2022-12-29T04:27:05;99505.56;;;11.88;73.49
30730;BME280;17476;48.458;7.928;2022-12-29T04:29:31;99505.91;;;11.99;72.96
30730;BME280;17476;48.458;7.928;2022-12-29T04:31:56;99500.66;;;11.99;73.01
30730;BME280;17476;48.458;7.928;2022-12-29T04:34:22;99501.66;;;11.84;74.06
30730;BME280;17476;48.458;7.928;2022-12-29T04:36:48;99497.94;;;11.78;74.42
30730;BME280;17476;48.458;7.928;2022-12-29T04:39:14;99505.88;;;11.70;74.98
30730;BME280;17476;48.458;7.928;2022-12-29T04:41:40;99498.56;;;11.80;74.25
30730;BME280;17476;48.458;7.928;2022-12-29T04:44:05;99492.63;;;11.86;74.07
30730;BME280;17476;48.458;7.928;2022-12-29T04:46:31;99491.25;;;11.90;73.81
30730;BME280;17476;48.458;7.928;2022-12-29T04:48:57;99496.59;;;11.82;74.40
30730;BME280;17476;48.458;7.928;2022-12-29T04:51:23;99494.25;;;11.87;74.10
30730;BME280;17476;48.458;7.928;2022-12-29T04:53:49;99499.78;;;11.92;73.89
30730;BME280;17476;48.458;7.928;2022-12-29T04:56:15;99496.66;;;12.03;73.14
30730;BME280;17476;48.458;7.928;2022-12-29T04:58:40;99493.13;;;12.11;72.84
30730;BME280;17476;48.458;7.928;2022-12-29T05:01:06;99491.41;;;12.03;73.73
30730;BME280;17476;48.458;7.928;2022-12-29T05:03:32;99495.59;;;11.98;73.65
30730;BME280;17476;48.458;7.928;2022-12-29T05:05:58;99498.44;;;12.18;72.57
30730;BME280;17476;48.458;7.928;2022-12-29T05:08:24;99485.34;;;12.39;71.27
30730;BME280;17476;48.458;7.928;2022-12-29T05:10:53;99477.72;;;12.23;72.15
30730;BME280;17476;48.458;7.928;2022-12-29T05:13:18;99496.41;;;12.35;71.33
30730;BME280;17476;48.458;7.928;2022-12-29T05:15:52;99467.69;;;12.26;71.84
30730;BME280;17476;48.458;7.928;2022-12-29T05:18:18;99468.56;;;12.34;71.05
30730;BME280;17476;48.458;7.928;2022-12-29T05:20:44;99461.94;;;12.38;71.18
30730;BME280;17476;48.458;7.928;2022-12-29T05:23:11;99468.81;;;12.39;70.49
30730;BME280;17476;48.458;7.928;2022-12-29T05:25:36;99455.28;;;12.35;69.83
30730;BME280;17476;48.458;7.928;2022-12-29T05:28:02;99446.34;;;12.51;69.14
30730;BME280;17476;48.458;7.928;2022-12-29T05:30:28;99458.69;;;12.57;68.30
30730;BME280;17476;48.458;7.928;2022-12-29T05:32:54;99458.63;;;12.50;69.44
30730;BME280;17476;48.458;7.928;2022-12-29T05:35:20;99459.97;;;12.40;69.92
30730;BME280;17476;48.458;7.928;2022-12-29T05:37:46;99455.28;;;12.35;69.84
30730;BME280;17476;48.458;7.928;2022-12-29T05:40:11;99450.56;;;12.30;69.93
30730;BME280;17476;48.458;7.928;2022-12-29T05:42:37;99456.63;;;12.31;69.84
30730;BME280;17476;48.458;7.928;2022-12-29T05:45:04;99460.06;;;12.32;69.30
30730;BME280;17476;48.458;7.928;2022-12-29T05:47:33;99457.75;;;12.22;69.91
30730;BME280;17476;48.458;7.928;2022-12-29T05:49:59;99461.00;;;12.24;70.17
30730;BME280;17476;48.458;7.928;2022-12-29T05:52:24;99453.88;;;12.39;68.58
30730;BME280;17476;48.458;7.928;2022-12-29T05:54:50;99454.88;;;12.38;68.38
30730;BME280;17476;48.458;7.928;2022-12-29T05:57:16;99459.63;;;12.28;69.00
30730;BME280;17476;48.458;7.928;2022-12-29T05:59:42;99470.88;;;12.22;69.21
30730;BME280;17476;48.458;7.928;2022-12-29T06:02:09;99454.13;;;12.23;69.49
30730;BME280;17476;48.458;7.928;2022-12-29T06:04:35;99460.38;;;12.22;69.25
30730;BME280;17476;48.458;7.928;2022-12-29T06:07:01;99461.53;;;12.34;67.86
30730;BME280;17476;48.458;7.928;2022-12-29T06:09:26;99474.19;;;12.30;68.23
30730;BME280;17476;48.458;7.928;2022-12-29T06:11:52;99463.00;;;12.22;69.38
30730;BME280;17476;48.458;7.928;2022-12-29T06:14:18;99458.97;;;12.19;69.06
30730;BME280;17476;48.458;7.928;2022-12-29T06:16:44;99465.81;;;12.42;67.06
30730;BME280;17476;48.458;7.928;2022-12-29T06:19:09;99473.25;;;12.38;67.62
30730;BME280;17476;48.458;7.928;2022-12-29T06:21:35;99463.34;;;12.34;67.81
30730;BME280;17476;48.458;7.928;2022-12-29T06:24:04;99463.88;;;12.29;67.51
30730;BME280;17476;48.458;7.928;2022-12-29T06:26:29;99457.38;;;12.25;68.03
30730;BME280;17476;48.458;7.928;2022-12-29T06:28:55;99465.44;;;12.23;68.07
30730;BME280;17476;48.458;7.928;2022-12-29T06:31:21;99461.00;;;12.24;67.99
30730;BME280;17476;48.458;7.928;2022-12-29T06:33:47;99453.72;;;12.19;68.08
30730;BME280;17476;48.458;7.928;2022-12-29T06:36:13;99448.09;;;12.22;67.73
30730;BME280;17476;48.458;7.928;2022-12-29T06:38:39;99455.63;;;12.32;67.47
30730;BME280;17476;48.458;7.928;2022-12-29T06:41:04;99454.28;;;12.36;66.75
30730;BME280;17476;48.458;7.928;2022-12-29T06:43:30;99456.63;;;12.31;67.24
30730;BME280;17476;48.458;7.928;2022-12-29T06:45:57;99455.47;;;12.34;67.01
30730;BME280;17476;48.458;7.928;2022-12-29T06:48:23;99448.16;;;12.29;67.22
30730;BME280;17476;48.458;7.928;2022-12-29T06:50:49;99445.72;;;12.27;67.17
30730;BME280;17476;48.458;7.928;2022-12-29T06:53:15;99460.38;;;12.43;65.90
30730;BME280;17476;48.458;7.928;2022-12-29T06:55:42;99458.44;;;12.52;65.63
30730;BME280;17476;48.458;7.928;2022-12-29T06:58:08;99464.94;;;12.56;65.51
30730;BME280;17476;48.458;7.928;2022-12-29T07:00:33;99465.38;;;12.60;66.03
30730;BME280;17476;48.458;7.928;2022-12-29T07:03:00;99467.88;;;12.68;65.15
30730;BME280;17476;48.458;7.928;2022-12-29T07:05:27;99458.34;;;12.60;66.20
30730;BME280;17476;48.458;7.928;2022-12-29T07:07:54;99463.75;;;12.58;65.66
30730;BME280;17476;48.458;7.928;2022-12-29T07:10:21;99465.53;;;12.79;64.32
30730;BME280;17476;48.458;7.928;2022-12-29T07:12:46;99452.47;;;12.86;63.63
30730;BME280;17476;48.458;7.928;2022-12-29T07:15:12;99471.25;;;12.83;64.37
30730;BME280;17476;48.458;7.928;2022-12-29T07:17:38;99467.75;;;12.76;65.99
30730;BME280;17476;48.458;7.928;2022-12-29T07:20:05;99465.38;;;12.81;64.10
30730;BME280;17476;48.458;7.928;2022-12-29T07:22:31;99460.25;;;12.73;64.47
30730;BME280;17476;48.458;7.928;2022-12-29T07:24:57;99470.03;;;12.85;64.21
30730;BME280;17476;48.458;7.928;2022-12-29T07:27:23;99469.09;;;12.93;63.58
30730;BME280;17476;48.458;7.928;2022-12-29T07:29:48;99474.22;;;12.80;64.80
30730;BME280;17476;48.458;7.928;2022-12-29T07:32:14;99471.03;;;12.84;65.14
30730;BME280;17476;48.458;7.928;2022-12-29T07:34:40;99469.16;;;12.78;65.30
30730;BME280;17476;48.458;7.928;2022-12-29T07:37:06;99476.34;;;12.91;63.72
30730;BME280;17476;48.458;7.928;2022-12-29T07:39:32;99474.06;;;12.81;64.95
30730;BME280;17476;48.458;7.928;2022-12-29T07:41:58;99478.91;;;12.84;64.55
30730;BME280;17476;48.458;7.928;2022-12-29T07:44:24;99485.50;;;12.74;65.83
30730;BME280;17476;48.458;7.928;2022-12-29T07:46:49;99494.75;;;12.70;65.49
30730;BME280;17476;48.458;7.928;2022-12-29T07:49:15;99482.16;;;12.87;64.07
30730;BME280;17476;48.458;7.928;2022-12-29T07:51:41;99487.41;;;12.87;64.98
30730;BME280;17476;48.458;7.928;2022-12-29T07:54:08;99492.84;;;12.85;63.98
30730;BME280;17476;48.458;7.928;2022-12-29T07:56:34;99496.47;;;12.84;64.14
30730;BME280;17476;48.458;7.928;2022-12-29T07:59:00;99508.16;;;12.81;64.99
30730;BME280;17476;48.458;7.928;2022-12-29T08:01:26;99507.22;;;12.89;63.81
30730;BME280;17476;48.458;7.928;2022-12-29T08:03:51;99509.75;;;13.04;63.91
30730;BME280;17476;48.458;7.928;2022-12-29T08:06:17;99503.31;;;13.06;64.31
30730;BME280;17476;48.458;7.928;2022-12-29T08:08:44;99510.72;;;12.96;65.22
30730;BME280;17476;48.458;7.928;2022-12-29T08:11:09;99515.88;;;13.11;64.37
30730;BME280;17476;48.458;7.928;2022-12-29T08:13:35;99518.03;;;13.01;65.02
30730;BME280;17476;48.458;7.928;2022-12-29T08:16:01;99533.00;;;13.07;63.96
30730;BME280;17476;48.458;7.928;2022-12-29T08:18:27;99541.06;;;13.05;63.92
30730;BME280;17476;48.458;7.928;2022-12-29T08:20:52;99544.91;;;13.03;64.83
30730;BME280;17476;48.458;7.928;2022-12-29T08:23:18;99545.16;;;13.08;64.53
30730;BME280;17476;48.458;7.928;2022-12-29T08:25:44;99550.19;;;13.09;65.07
30730;BME280;17476;48.458;7.928;2022-12-29T08:28:10;99538.91;;;13.09;65.38
30730;BME280;17476;48.458;7.928;2022-12-29T08:30:36;99541.13;;;13.12;65.12
30730;BME280;17476;48.458;7.928;2022-12-29T08:33:02;99546.09;;;13.22;64.27
30730;BME280;17476;48.458;7.928;2022-12-29T08:35:28;99553.03;;;13.29;64.39
30730;BME280;17476;48.458;7.928;2022-12-29T08:37:53;99557.56;;;13.21;64.93
30730;BME280;17476;48.458;7.928;2022-12-29T08:40:19;99561.25;;;13.26;64.62
30730;BME280;17476;48.458;7.928;2022-12-29T08:42:45;99565.34;;;13.29;65.28
30730;BME280;17476;48.458;7.928;2022-12-29T08:45:12;99567.97;;;13.29;65.36
30730;BME280;17476;48.458;7.928;2022-12-29T08:47:38;99562.38;;;13.38;65.02
30730;BME280;17476;48.458;7.928;2022-12-29T08:50:04;99568.06;;;13.42;64.02
30730;BME280;17476;48.458;7.928;2022-12-29T08:52:30;99570.88;;;13.41;65.29
30730;BME280;17476;48.458;7.928;2022-12-29T08:54:56;99571.09;;;13.46;65.74
30730;BME280;17476;48.458;7.928;2022-12-29T08:57:21;99581.63;;;13.46;65.81
30730;BME280;17476;48.458;7.928;2022-12-29T08:59:47;99581.22;;;13.42;66.39
30730;BME280;17476;48.458;7.928;2022-12-29T09:02:13;99577.41;;;13.51;65.52
30730;BME280;17476;48.458;7.928;2022-12-29T09:04:39;99583.53;;;13.58;65.58
30730;BME280;17476;48.458;7.928;2022-12-29T09:07:05;99581.16;;;13.63;65.81
30730;BME280;17476;48.458;7.928;2022-12-29T09:09:32;99578.16;;;13.73;65.47
30730;BME280;17476;48.458;7.928;2022-12-29T09:11:58;99584.72;;;13.84;64.51
30730;BME280;17476;48.458;7.928;2022-12-29T09:14:23;99582.66;;;13.79;65.78
30730;BME280;17476;48.458;7.928;2022-12-29T09:16:51;99587.16;;;13.85;64.82
30730;BME280;17476;48.458;7.928;2022-12-29T09:19:36;99577.44;;;13.86;65.21
30730;BME280;17476;48.458;7.928;2022-12-29T09:22:02;99586.72;;;13.82;65.99
30730;BME280;17476;48.458;7.928;2022-12-29T09:24:28;99586.78;;;13.95;64.38
30730;BME280;17476;48.458;7.928;2022-12-29T09:26:54;99590.81;;;13.91;66.06
30730;BME280;17476;48.458;7.928;2022-12-29T09:29:20;99577.72;;;13.98;65.53
30730;BME280;17476;48.458;7.928;2022-12-29T09:31:46;99582.00;;;14.05;65.10
30730;BME280;17476;48.458;7.928;2022-12-29T09:34:11;99578.94;;;14.43;63.60
30730;BME280;17476;48.458;7.928;2022-12-29T09:36:37;99575.25;;;14.37;63.41
30730;BME280;17476;48.458;7.928;2022-12-29T09:39:03;99578.47;;;14.33;63.01
30730;BME280;17476;48.458;7.928;2022-12-29T09:41:57;99587.56;;;14.24;62.44
30730;BME280;17476;48.458;7.928;2022-12-29T09:45:00;99586.06;;;14.14;63.03
30730;BME280;17476;48.458;7.928;2022-12-29T09:47:28;99602.63;;;14.08;65.06
30730;BME280;17476;48.458;7.928;2022-12-29T09:52:48;99601.13;;;14.34;64.91
30730;BME280;17476;48.458;7.928;2022-12-29T09:55:19;99599.59;;;14.46;64.46
30730;BME280;17476;48.458;7.928;2022-12-29T10:01:02;99592.59;;;14.66;63.41
30730;BME280;17476;48.458;7.928;2022-12-29T10:03:48;99591.75;;;14.59;64.21
30730;BME280;17476;48.458;7.928;2022-12-29T10:06:54;99587.25;;;14.46;63.98
30730;BME280;17476;48.458;7.928;2022-12-29T10:09:26;99594.34;;;14.46;64.09
30730;BME280;17476;48.458;7.928;2022-12-29T10:21:08;99615.75;;;14.36;64.73
30730;BME280;17476;48.458;7.928;2022-12-29T10:23:52;99605.56;;;14.27;65.90
30730;BME280;17476;48.458;7.928;2022-12-29T10:26:27;99603.16;;;14.32;65.84
30730;BME280;17476;48.458;7.928;2022-12-29T10:29:05;99601.91;;;14.28;65.54
30730;BME280;17476;48.458;7.928;2022-12-29T10:31:44;99608.59;;;14.24;65.37
30730;BME280;17476;48.458;7.928;2022-12-29T10:34:34;99604.47;;;14.14;66.50
30730;BME280;17476;48.458;7.928;2022-12-29T10:39:49;99590.78;;;14.26;67.48
30730;BME280;17476;48.458;7.928;2022-12-29T10:42:35;99586.41;;;14.39;67.42
30730;BME280;17476;48.458;7.928;2022-12-29T10:45:04;99587.09;;;14.61;65.89
30730;BME280;17476;48.458;7.928;2022-12-29T10:47:37;99579.84;;;14.70;65.97
30730;BME280;17476;48.458;7.928;2022-12-29T10:50:05;99574.75;;;14.68;66.14
30730;BME280;17476;48.458;7.928;2022-12-29T10:52:33;99585.94;;;14.77;66.27
30730;BME280;17476;48.458;7.928;2022-12-29T10:55:11;99585.72;;;14.72;66.73
30730;BME280;17476;48.458;7.928;2022-12-29T10:57:46;99577.81;;;14.72;66.77
30730;BME280;17476;48.458;7.928;2022-12-29T11:00:20;99567.91;;;14.74;66.73
30730;BME280;17476;48.458;7.928;2022-12-29T11:03:22;99576.56;;;14.61;66.46
30730;BME280;17476;48.458;7.928;2022-12-29T11:06:21;99581.78;;;14.48;67.14
30730;BME280;17476;48.458;7.928;2022-12-29T11:09:12;99585.44;;;14.47;67.03
30730;BME280;17476;48.458;7.928;2022-12-29T11:11:40;99586.63;;;14.44;67.72
30730;BME280;17476;48.458;7.928;2022-12-29T11:14:21;99583.72;;;14.26;69.07
30730;BME280;17476;48.458;7.928;2022-12-29T11:17:00;99584.72;;;14.25;69.26
30730;BME280;17476;48.458;7.928;2022-12-29T11:19:30;99584.91;;;14.24;68.98
30730;BME280;17476;48.458;7.928;2022-12-29T11:22:27;99584.09;;;14.16;69.67
30730;BME280;17476;48.458;7.928;2022-12-29T11:24:54;99582.81;;;14.06;70.36
30730;BME280;17476;48.458;7.928;2022-12-29T11:27:30;99592.28;;;14.00;70.70
30730;BME280;17476;48.458;7.928;2022-12-29T11:29:56;99589.44;;;14.02;71.16
30730;BME280;17476;48.458;7.928;2022-12-29T11:32:28;99592.03;;;13.95;71.40
30730;BME280;17476;48.458;7.928;2022-12-29T11:34:58;99586.97;;;13.93;71.44
30730;BME280;17476;48.458;7.928;2022-12-29T11:37:36;99585.84;;;14.03;70.96
30730;BME280;17476;48.458;7.928;2022-12-29T11:40:19;99573.91;;;14.07;71.27
30730;BME280;17476;48.458;7.928;2022-12-29T11:42:55;99577.53;;;14.06;72.27
30730;BME280;17476;48.458;7.928;2022-12-29T11:45:29;99586.44;;;14.05;71.92
30730;BME280;17476;48.458;7.928;2022-12-29T11:48:18;99585.16;;;13.94;72.35
30730;BME280;17476;48.458;7.928;2022-12-29T11:50:58;99582.16;;;13.97;72.69
30730;BME280;17476;48.458;7.928;2022-12-29T11:53:44;99578.72;;;13.97;73.14
30730;BME280;17476;48.458;7.928;2022-12-29T11:56:19;99572.88;;;14.01;72.74
30730;BME280;17476;48.458;7.928;2022-12-29T11:58:45;99570.75;;;14.25;72.44
30730;BME280;17476;48.458;7.928;2022-12-29T12:01:44;99557.50;;;14.46;70.79
30730;BME280;17476;48.458;7.928;2022-12-29T12:04:16;99554.63;;;14.41;69.75
30730;BME280;17476;48.458;7.928;2022-12-29T12:07:02;99550.84;;;14.50;70.47
30730;BME280;17476;48.458;7.928;2022-12-29T12:09:58;99548.25;;;14.63;69.43
30730;BME280;17476;48.458;7.928;2022-12-29T12:12:51;99549.09;;;14.77;68.87
30730;BME280;17476;48.458;7.928;2022-12-29T12:15:40;99549.91;;;14.78;68.98
30730;BME280;17476;48.458;7.928;2022-12-29T12:24:36;99533.09;;;15.05;68.44
30730;BME280;17476;48.458;7.928;2022-12-29T12:27:24;99530.06;;;15.08;68.63
30730;BME280;17476;48.458;7.928;2022-12-29T12:30:07;99524.19;;;15.06;68.07
30730;BME280;17476;48.458;7.928;2022-12-29T12:36:09;99524.78;;;14.82;68.61
30730;BME280;17476;48.458;7.928;2022-12-29T12:42:04;99520.69;;;14.53;70.19
30730;BME280;17476;48.458;7.928;2022-12-29T12:44:41;99515.78;;;14.43;70.83
30730;BME280;17476;48.458;7.928;2022-12-29T12:56:56;99508.53;;;14.52;69.99
30730;BME280;17476;48.458;7.928;2022-12-29T13:14:38;99480.72;;;14.36;71.39
30730;BME280;17476;48.458;7.928;2022-12-29T13:17:51;99492.09;;;14.36;70.95
30730;BME280;17476;48.458;7.928;2022-12-29T13:26:42;99478.94;;;15.49;68.15
30730;BME280;17476;48.458;7.928;2022-12-29T13:38:39;99466.00;;;16.37;63.54
30730;BME280;17476;48.458;7.928;2022-12-29T13:41:11;99475.88;;;16.17;64.11
30730;BME280;17476;48.458;7.928;2022-12-29T13:43:42;99479.22;;;15.99;65.25
30730;BME280;17476;48.458;7.928;2022-12-29T13:46:25;99483.94;;;16.28;65.40
30730;BME280;17476;48.458;7.928;2022-12-29T13:48:58;99488.28;;;16.48;63.82
30730;BME280;17476;48.458;7.928;2022-12-29T13:51:26;99478.34;;;16.43;63.34
30730;BME280;17476;48.458;7.928;2022-12-29T13:55:40;99475.81;;;16.23;63.10
30730;BME280;17476;48.458;7.928;2022-12-29T13:57:53;99480.09;;;15.79;65.22
30730;BME280;17476;48.458;7.928;2022-12-29T14:00:23;99479.31;;;15.72;65.17
30730;BME280;17476;48.458;7.928;2022-12-29T14:03:12;99468.41;;;15.49;66.41
30730;BME280;17476;48.458;7.928;2022-12-29T14:05:45;99477.13;;;15.36;66.69
30730;BME280;17476;48.458;7.928;2022-12-29T14:08:27;99479.41;;;15.06;67.99
30730;BME280;17476;48.458;7.928;2022-12-29T14:10:53;99477.19;;;15.03;68.09
30730;BME280;17476;48.458;7.928;2022-12-29T14:13:23;99478.41;;;14.87;69.69
30730;BME280;17476;48.458;7.928;2022-12-29T14:15:56;99469.28;;;14.83;69.11
30730;BME280;17476;48.458;7.928;2022-12-29T14:18:32;99475.75;;;14.74;69.90
30730;BME280;17476;48.458;7.928;2022-12-29T14:21:24;99484.06;;;14.58;70.46
30730;BME280;17476;48.458;7.928;2022-12-29T14:29:48;99492.09;;;14.36;70.82
30730;BME280;17476;48.458;7.928;2022-12-29T14:34:47;99488.81;;;14.28;71.38
30730;BME280;17476;48.458;7.928;2022-12-29T14:42:31;99507.97;;;14.08;71.81
30730;BME280;17476;48.458;7.928;2022-12-29T14:47:41;99546.41;;;14.03;73.91
30730;BME280;17476;48.458;7.928;2022-12-29T14:50:17;99567.13;;;13.84;74.59
30730;BME280;17476;48.458;7.928;2022-12-29T14:53:00;99574.06;;;13.64;75.89
30730;BME280;17476;48.458;7.928;2022-12-29T14:55:56;99582.72;;;13.30;78.31
30730;BME280;17476;48.458;7.928;2022-12-29T14:58:42;99590.19;;;13.11;80.09
30730;BME280;17476;48.458;7.928;2022-12-29T15:01:50;99580.97;;;13.16;80.53
30730;BME280;17476;48.458;7.928;2022-12-29T15:04:31;99588.13;;;13.07;81.15
30730;BME280;17476;48.458;7.928;2022-12-29T15:06:59;99584.34;;;13.09;81.36
30730;BME280;17476;48.458;7.928;2022-12-29T15:09:43;99589.53;;;13.03;81.79
30730;BME280;17476;48.458;7.928;2022-12-29T15:12:41;99593.97;;;12.81;83.52
30730;BME280;17476;48.458;7.928;2022-12-29T15:15:28;99598.75;;;12.77;84.08
30730;BME280;17476;48.458;7.928;2022-12-29T15:17:55;99592.25;;;12.73;84.33
30730;BME280;17476;48.458;7.928;2022-12-29T15:22:56;99600.69;;;12.69;84.46
30730;BME280;17476;48.458;7.928;2022-12-29T15:25:24;99601.44;;;12.63;85.12
30730;BME280;17476;48.458;7.928;2022-12-29T15:28:03;99593.91;;;12.60;85.17